Time;durP1;ratioP1;P1;durP2;ratioP2;P2;SDS_P1;SDS_P2;PMS_P1;PMS_P2;Temp;Humidity;BMP_temperature;BMP_pressure;BME280_temperature;BME280_humidity;BME280_pressure;Samples;Min_cycle;Max_cycle;Signal;HPM_P1;HPM_P2
2021/11/08 00:02:13;;;;;;;;;;;8.00;56.60;;;;;;4373339;32;20363;-46
2021/11/08 00:04:39;;;;;;;;;;;8.10;56.50;;;;;;4373876;32;19958;-46
2021/11/08 00:07:06;;;;;;;;;;;8.10;56.40;;;;;;4373001;32;19982;-45
2021/11/08 00:09:32;;;;;;;;;;;8.10;56.40;;;;;;4373708;32;20077;-46
2021/11/08 00:11:58;;;;;;;;;;;8.10;56.30;;;;;;4373599;32;20542;-45
2021/11/08 00:14:25;;;;;;;;;;;8.10;56.20;;;;;;4373802;32;20381;-46
2021/11/08 00:17:11;;;;;;;;;;;8.10;56.30;;;;;;4373335;32;19958;-46
2021/11/08 00:22:13;;;;;;;;;;;8.10;56.50;;;;;;4373196;32;20051;-46
2021/11/08 00:24:40;;;;;;;;;;;8.10;56.60;;;;;;4384515;32;20407;-47
2021/11/08 00:27:06;;;;;;;;;;;8.20;56.60;;;;;;4390396;32;19987;-46
2021/11/08 00:29:34;;;;;;;;;;;8.20;57.30;;;;;;4377666;32;20041;-45
2021/11/08 00:32:01;;;;;;;;;;;8.10;56.40;;;;;;4391044;32;20419;-43
2021/11/08 00:34:28;;;;;;;;;;;8.10;56.30;;;;;;4377572;32;20077;-45
2021/11/08 00:36:54;;;;;;;;;;;8.10;56.40;;;;;;4377043;32;19991;-44
2021/11/08 00:39:22;;;;;;;;;;;8.10;56.40;;;;;;4391222;32;19966;-45
2021/11/08 00:41:49;;;;;;;;;;;8.00;56.30;;;;;;4391372;32;19995;-43
2021/11/08 00:44:15;;;;;;;;;;;8.00;56.40;;;;;;4391576;32;20386;-44
2021/11/08 00:46:41;;;;;;;;;;;8.00;56.40;;;;;;4378142;32;19968;-44
2021/11/08 00:49:09;;;;;;;;;;;7.90;56.30;;;;;;4375819;32;20421;-42
2021/11/08 00:51:40;;;;;;;;;;;7.90;56.40;;;;;;4375808;32;19981;-41
2021/11/08 00:54:10;;;;;;;;;;;7.90;56.60;;;;;;4362539;32;20459;-43
2021/11/08 00:56:38;;;;;;;;;;;7.90;56.40;;;;;;4375936;32;19980;-42
2021/11/08 00:59:05;;;;;;;;;;;7.90;56.40;;;;;;4376143;32;20001;-45
2021/11/08 01:01:31;;;;;;;;;;;7.80;56.50;;;;;;4376414;32;20004;-45
2021/11/08 01:03:58;;;;;;;;;;;7.80;56.60;;;;;;4375947;32;20127;-44
2021/11/08 01:06:24;;;;;;;;;;;7.80;56.60;;;;;;4375919;32;19977;-45
2021/11/08 01:08:50;;;;;;;;;;;7.80;56.70;;;;;;4375425;32;19966;-43
2021/11/08 01:11:16;;;;;;;;;;;7.80;56.70;;;;;;4386967;32;20059;-44
2021/11/08 01:13:43;;;;;;;;;;;7.80;56.80;;;;;;4375927;32;19969;-44
2021/11/08 01:16:10;;;;;;;;;;;7.80;56.80;;;;;;4375676;32;19973;-44
2021/11/08 01:18:37;;;;;;;;;;;7.70;56.90;;;;;;4375866;32;20366;-42
2021/11/08 01:21:03;;;;;;;;;;;7.80;57.10;;;;;;4376227;32;19985;-45
2021/11/08 01:23:31;;;;;;;;;;;7.80;57.30;;;;;;4375158;32;19973;-45
2021/11/08 01:26:02;;;;;;;;;;;7.80;57.50;;;;;;4374581;32;20519;-45
2021/11/08 01:28:35;;;;;;;;;;;7.80;57.50;;;;;;4374629;32;19996;-44
2021/11/08 01:31:03;;;;;;;;;;;7.80;57.40;;;;;;4374643;32;19974;-46
2021/11/08 01:33:29;;;;;;;;;;;7.80;57.40;;;;;;4360929;32;20053;-44
2021/11/08 01:38:46;;;;;;;;;;;7.90;57.50;;;;;;4361494;32;19985;-45
2021/11/08 01:41:14;;;;;;;;;;;7.90;57.50;;;;;;4362061;32;20033;-44
2021/11/08 01:43:41;;;;;;;;;;;7.90;57.50;;;;;;4374138;32;19970;-44
2021/11/08 01:46:08;;;;;;;;;;;7.90;57.40;;;;;;4374513;32;19981;-43
2021/11/08 01:48:34;;;;;;;;;;;7.90;57.40;;;;;;4374544;32;19958;-40
2021/11/08 01:51:01;;;;;;;;;;;7.90;57.50;;;;;;4374098;32;20033;-44
2021/11/08 01:53:28;;;;;;;;;;;7.90;57.60;;;;;;4374900;32;20051;-43
2021/11/08 01:55:55;;;;;;;;;;;7.90;57.70;;;;;;4374736;32;19958;-45
2021/11/08 01:58:21;;;;;;;;;;;7.90;57.70;;;;;;4374139;32;20139;-42
2021/11/08 02:00:48;;;;;;;;;;;8.00;57.70;;;;;;4372787;32;20016;-43
2021/11/08 02:03:16;;;;;;;;;;;8.00;57.80;;;;;;4372451;32;19971;-45
2021/11/08 02:05:42;;;;;;;;;;;8.00;57.90;;;;;;4374516;32;20055;-42
2021/11/08 02:08:09;;;;;;;;;;;8.00;58.00;;;;;;4374250;32;19984;-42
2021/11/08 02:10:36;;;;;;;;;;;8.00;58.10;;;;;;4372987;32;20415;-45
2021/11/08 02:13:02;;;;;;;;;;;8.00;58.10;;;;;;4374303;32;19961;-44
2021/11/08 02:15:28;;;;;;;;;;;8.00;58.10;;;;;;4374187;32;20079;-44
2021/11/08 02:17:55;;;;;;;;;;;8.10;58.20;;;;;;4374158;32;19966;-45
2021/11/08 02:20:27;;;;;;;;;;;8.10;58.20;;;;;;4373992;32;19970;-42
2021/11/08 02:22:56;;;;;;;;;;;8.10;58.30;;;;;;4374228;32;19955;-43
2021/11/08 02:25:24;;;;;;;;;;;8.10;58.30;;;;;;4389925;32;20623;-44
2021/11/08 02:27:51;;;;;;;;;;;8.20;58.30;;;;;;4371759;32;19958;-44
2021/11/08 02:30:18;;;;;;;;;;;8.20;58.30;;;;;;4372226;32;19971;-44
2021/11/08 02:32:47;;;;;;;;;;;8.20;58.20;;;;;;4372155;32;19996;-44
2021/11/08 02:35:14;;;;;;;;;;;8.20;58.10;;;;;;4359872;32;19989;-42
2021/11/08 02:37:40;;;;;;;;;;;8.20;58.10;;;;;;4372470;32;19963;-44
2021/11/08 02:40:07;;;;;;;;;;;8.30;58.10;;;;;;4372080;32;20089;-43
2021/11/08 02:42:34;;;;;;;;;;;8.20;58.10;;;;;;4372090;32;19966;-42
2021/11/08 02:45:03;;;;;;;;;;;8.20;58.10;;;;;;4368916;32;20156;-43
2021/11/08 02:47:30;;;;;;;;;;;8.20;58.30;;;;;;4357134;32;19959;-43
2021/11/08 02:49:58;;;;;;;;;;;8.20;58.30;;;;;;4356188;32;19975;-44
2021/11/08 02:52:26;;;;;;;;;;;8.20;58.40;;;;;;4356385;32;20413;-43
2021/11/08 02:54:52;;;;;;;;;;;8.20;58.50;;;;;;4356906;32;20008;-43
2021/11/08 02:57:21;;;;;;;;;;;8.20;58.50;;;;;;4356770;32;19969;-44
2021/11/08 02:59:47;;;;;;;;;;;8.20;58.50;;;;;;4356991;32;19967;-43
2021/11/08 03:02:17;;;;;;;;;;;8.20;58.40;;;;;;4356524;32;20029;-43
2021/11/08 03:04:49;;;;;;;;;;;8.30;58.30;;;;;;4361902;32;19970;-43
2021/11/08 03:07:16;;;;;;;;;;;8.30;58.40;;;;;;4374457;32;19965;-44
2021/11/08 03:09:48;;;;;;;;;;;8.30;58.50;;;;;;4374066;32;20074;-43
2021/11/08 03:12:17;;;;;;;;;;;8.30;58.60;;;;;;4374223;32;20043;-42
2021/11/08 03:15:06;;;;;;;;;;;8.30;58.60;;;;;;4374467;32;19974;-39
2021/11/08 03:17:40;;;;;;;;;;;8.40;58.70;;;;;;4374067;32;19962;-43
2021/11/08 03:20:10;;;;;;;;;;;8.40;58.70;;;;;;4373794;32;20525;-44
2021/11/08 03:22:37;;;;;;;;;;;8.40;58.60;;;;;;4373943;32;20418;-43
2021/11/08 03:25:14;;;;;;;;;;;8.40;58.40;;;;;;4374013;32;20001;-46
2021/11/08 03:30:15;;;;;;;;;;;8.40;58.30;;;;;;4360928;32;20125;-44
2021/11/08 03:32:44;;;;;;;;;;;8.40;58.40;;;;;;4373612;32;20154;-44
2021/11/08 03:35:10;;;;;;;;;;;8.40;58.50;;;;;;4374462;32;20478;-43
2021/11/08 03:37:39;;;;;;;;;;;8.40;58.50;;;;;;4373520;32;20066;-44
2021/11/08 03:40:07;;;;;;;;;;;8.50;58.40;;;;;;4373255;32;20429;-43
2021/11/08 03:42:33;;;;;;;;;;;8.60;58.30;;;;;;4360189;32;19981;-43
2021/11/08 03:44:59;;;;;;;;;;;8.60;58.20;;;;;;4373439;32;19969;-43
2021/11/08 03:47:25;;;;;;;;;;;8.50;57.90;;;;;;4373547;32;20045;-43
2021/11/08 03:49:52;;;;;;;;;;;8.60;57.80;;;;;;4373197;32;20000;-43
2021/11/08 03:52:18;;;;;;;;;;;8.60;57.80;;;;;;4373268;32;20382;-43
2021/11/08 03:54:45;;;;;;;;;;;8.60;57.70;;;;;;4373717;32;20072;-43
2021/11/08 03:57:11;;;;;;;;;;;8.50;57.60;;;;;;4373611;32;19966;-43
2021/11/08 03:59:37;;;;;;;;;;;8.50;57.80;;;;;;4359192;32;19972;-43
2021/11/08 04:02:03;;;;;;;;;;;8.50;58.00;;;;;;4373595;32;20433;-44
2021/11/08 04:04:30;;;;;;;;;;;8.40;58.20;;;;;;4373496;32;20410;-42
2021/11/08 04:06:57;;;;;;;;;;;8.40;58.40;;;;;;4373360;32;19965;-42
2021/11/08 04:09:23;;;;;;;;;;;8.50;58.50;;;;;;4373138;32;19958;-43
2021/11/08 04:11:50;;;;;;;;;;;8.50;58.50;;;;;;4373860;32;19962;-41
2021/11/08 04:14:17;;;;;;;;;;;8.50;58.50;;;;;;4373107;32;19954;-42
2021/11/08 04:16:44;;;;;;;;;;;8.50;58.40;;;;;;4374057;32;19966;-43
2021/11/08 04:19:11;;;;;;;;;;;8.50;58.50;;;;;;4373489;32;19966;-40
2021/11/08 04:21:38;;;;;;;;;;;8.50;58.60;;;;;;4373150;32;20020;-43
2021/11/08 04:24:04;;;;;;;;;;;8.50;58.80;;;;;;4373143;32;19989;-43
2021/11/08 04:26:33;;;;;;;;;;;8.50;58.90;;;;;;4373695;32;20413;-42
2021/11/08 04:29:03;;;;;;;;;;;8.60;59.10;;;;;;4373595;32;20042;-43
2021/11/08 04:31:36;;;;;;;;;;;8.60;59.10;;;;;;4372873;32;19989;-43
2021/11/08 04:34:11;;;;;;;;;;;8.70;59.20;;;;;;4372850;32;20335;-43
2021/11/08 04:37:08;;;;;;;;;;;8.70;59.20;;;;;;4372989;32;20403;-43
2021/11/08 04:42:31;;;;;;;;;;;8.80;59.20;;;;;;4373055;32;20066;-43
2021/11/08 04:50:24;;;;;;;;;;;9.00;59.60;;;;;;4387745;32;20538;-43
2021/11/08 04:53:05;;;;;;;;;;;9.20;59.60;;;;;;4388270;32;19961;-41
2021/11/08 04:56:14;;;;;;;;;;;9.20;59.70;;;;;;4388250;32;20007;-43
2021/11/08 05:30:56;;;;;;;;;;;10.00;55.80;;;;;;4376523;32;19973;-42
2021/11/08 05:33:23;;;;;;;;;;;10.00;55.90;;;;;;4390442;32;20049;-42
2021/11/08 05:35:49;;;;;;;;;;;10.00;56.00;;;;;;4390201;32;20042;-42
2021/11/08 05:38:15;;;;;;;;;;;10.00;55.90;;;;;;4390852;32;19958;-43
2021/11/08 05:40:42;;;;;;;;;;;10.00;55.90;;;;;;4390233;32;19989;-43
2021/11/08 05:43:08;;;;;;;;;;;10.00;55.90;;;;;;4390447;32;19973;-42
2021/11/08 05:45:35;;;;;;;;;;;10.10;55.80;;;;;;4384002;32;20043;-43
2021/11/08 05:48:04;;;;;;;;;;;10.10;55.70;;;;;;4375510;32;19959;-43
2021/11/08 05:50:31;;;;;;;;;;;10.20;55.50;;;;;;4375368;32;20395;-44
2021/11/08 05:52:57;;;;;;;;;;;10.20;55.20;;;;;;4375213;32;19962;-44
2021/11/08 05:55:35;;;;;;;;;;;10.20;55.20;;;;;;4361275;32;19992;-43
2021/11/08 06:50:05;;;;;;;;;;;11.10;52.50;;;;;;4362543;32;19973;-43
2021/11/08 06:52:32;;;;;;;;;;;11.20;52.70;;;;;;4374253;32;20060;-44
2021/11/08 06:55:02;;;;;;;;;;;11.20;52.80;;;;;;4374494;32;19970;-44
2021/11/08 06:57:33;;;;;;;;;;;11.20;52.70;;;;;;4374183;32;19993;-44
2021/11/08 06:59:59;;;;;;;;;;;11.30;52.50;;;;;;4374366;32;19964;-45
2021/11/08 07:02:26;;;;;;;;;;;11.30;52.50;;;;;;4374473;32;19984;-44
2021/11/08 07:04:53;;;;;;;;;;;11.20;52.40;;;;;;4373708;32;20046;-43
2021/11/08 07:07:19;;;;;;;;;;;11.20;52.50;;;;;;4373864;32;20396;-44
2021/11/08 07:09:46;;;;;;;;;;;11.10;52.80;;;;;;4374040;32;19958;-44
2021/11/08 07:12:12;;;;;;;;;;;11.00;53.00;;;;;;4373666;32;19961;-43
2021/11/08 07:14:39;;;;;;;;;;;11.00;53.50;;;;;;4373842;32;19962;-44
2021/11/08 07:17:05;;;;;;;;;;;11.00;53.60;;;;;;4373703;32;19974;-44
2021/11/08 07:19:32;;;;;;;;;;;10.90;53.90;;;;;;4374094;32;20391;-43
2021/11/08 07:21:58;;;;;;;;;;;10.90;54.10;;;;;;4373460;32;19955;-41
2021/11/08 07:24:24;;;;;;;;;;;10.90;54.40;;;;;;4373859;32;20127;-44
2021/11/08 07:26:51;;;;;;;;;;;10.90;54.40;;;;;;4373586;32;19989;-45
2021/11/08 07:29:17;;;;;;;;;;;10.90;54.50;;;;;;4374149;32;20042;-43
2021/11/08 07:31:43;;;;;;;;;;;10.90;54.40;;;;;;4373647;32;19978;-44
2021/11/08 07:34:10;;;;;;;;;;;10.80;54.40;;;;;;4373257;32;20046;-44
2021/11/08 07:36:36;;;;;;;;;;;10.70;54.60;;;;;;4373667;32;19970;-44
2021/11/08 07:39:03;;;;;;;;;;;10.60;54.90;;;;;;4373748;32;19971;-45
2021/11/08 07:41:30;;;;;;;;;;;10.50;55.20;;;;;;4373440;32;19961;-44
2021/11/08 07:43:56;;;;;;;;;;;10.50;55.40;;;;;;4373579;32;19965;-44
2021/11/08 07:46:22;;;;;;;;;;;10.40;55.40;;;;;;4373409;32;19974;-45
2021/11/08 07:48:48;;;;;;;;;;;10.40;56.20;;;;;;4373266;32;20077;-43
2021/11/08 07:51:16;;;;;;;;;;;10.30;55.60;;;;;;4373414;32;19962;-46
2021/11/08 07:53:42;;;;;;;;;;;10.20;55.70;;;;;;4373723;32;19978;-46
2021/11/08 07:56:09;;;;;;;;;;;10.20;56.10;;;;;;4373131;32;19993;-43
2021/11/08 07:58:35;;;;;;;;;;;10.20;56.30;;;;;;4373520;32;19966;-43
2021/11/08 08:01:02;;;;;;;;;;;10.10;56.40;;;;;;4373406;32;19966;-47
2021/11/08 08:03:28;;;;;;;;;;;10.00;56.60;;;;;;4373538;32;20411;-46
2021/11/08 08:05:55;;;;;;;;;;;10.00;56.90;;;;;;4373810;32;20025;-47
2021/11/08 08:08:22;;;;;;;;;;;10.00;57.10;;;;;;4371360;32;19966;-47
2021/11/08 08:10:52;;;;;;;;;;;10.00;57.30;;;;;;4372988;32;19974;-43
2021/11/08 08:13:25;;;;;;;;;;;10.00;57.40;;;;;;4373359;32;20049;-44
2021/11/08 08:15:54;;;;;;;;;;;10.00;57.50;;;;;;4373108;32;19985;-46
2021/11/08 08:18:20;;;;;;;;;;;10.00;57.50;;;;;;4371968;32;20064;-46
2021/11/08 08:20:47;;;;;;;;;;;10.00;57.60;;;;;;4371582;32;20438;-45
2021/11/08 08:23:13;;;;;;;;;;;10.00;57.90;;;;;;4373240;32;20438;-45
2021/11/08 08:25:39;;;;;;;;;;;10.00;58.00;;;;;;4388280;32;20056;-46
2021/11/08 08:28:05;;;;;;;;;;;10.00;58.00;;;;;;4373958;32;19993;-47
2021/11/08 08:30:32;;;;;;;;;;;10.00;58.00;;;;;;4388443;32;19969;-43
2021/11/08 08:32:58;;;;;;;;;;;10.00;58.00;;;;;;4388263;32;20031;-43
2021/11/08 08:35:24;;;;;;;;;;;10.00;58.20;;;;;;4388085;32;20410;-45
2021/11/08 08:37:50;;;;;;;;;;;10.10;58.20;;;;;;4388185;32;19982;-46
2021/11/08 08:40:17;;;;;;;;;;;10.10;58.30;;;;;;4388142;32;19961;-45
2021/11/08 08:42:43;;;;;;;;;;;10.10;58.40;;;;;;4387955;32;19970;-46
2021/11/08 08:45:10;;;;;;;;;;;10.10;58.50;;;;;;4388579;32;19977;-47
2021/11/08 08:47:36;;;;;;;;;;;10.20;58.50;;;;;;4389668;32;20408;-46
2021/11/08 08:50:04;;;;;;;;;;;10.10;58.40;;;;;;4376810;32;20029;-44
2021/11/08 08:52:30;;;;;;;;;;;10.20;58.40;;;;;;4391478;32;20051;-46
2021/11/08 08:54:57;;;;;;;;;;;10.20;58.50;;;;;;4390855;32;19981;-46
2021/11/08 08:57:23;;;;;;;;;;;10.20;58.50;;;;;;4391087;32;20099;-49
2021/11/08 08:59:50;;;;;;;;;;;10.20;58.50;;;;;;4376464;32;20000;-45
2021/11/08 09:02:17;;;;;;;;;;;10.20;58.60;;;;;;4390883;32;20377;-46
2021/11/08 09:04:43;;;;;;;;;;;10.20;58.50;;;;;;4390975;32;19972;-47
2021/11/08 09:07:09;;;;;;;;;;;10.30;58.50;;;;;;4390992;32;20001;-48
2021/11/08 09:09:36;;;;;;;;;;;10.30;58.50;;;;;;4390926;32;19985;-45
2021/11/08 09:12:03;;;;;;;;;;;10.30;58.50;;;;;;4391310;32;19976;-48
2021/11/08 09:14:30;;;;;;;;;;;10.20;58.60;;;;;;4390885;32;19969;-48
2021/11/08 09:16:56;;;;;;;;;;;10.20;58.80;;;;;;4391080;32;19977;-48
2021/11/08 09:19:23;;;;;;;;;;;10.20;58.80;;;;;;4377014;32;20596;-46
2021/11/08 09:21:49;;;;;;;;;;;10.20;59.00;;;;;;4390754;32;20038;-47
2021/11/08 09:24:15;;;;;;;;;;;10.30;59.10;;;;;;4390715;32;20378;-46
2021/11/08 09:26:41;;;;;;;;;;;10.30;59.10;;;;;;4390275;32;19961;-48
2021/11/08 09:29:08;;;;;;;;;;;10.30;59.00;;;;;;4376382;32;20410;-45
2021/11/08 09:31:34;;;;;;;;;;;10.30;58.90;;;;;;4390892;32;19981;-47
2021/11/08 09:34:05;;;;;;;;;;;10.30;58.90;;;;;;4390587;32;20398;-48
2021/11/08 09:36:32;;;;;;;;;;;10.30;58.90;;;;;;4389953;32;19969;-46
2021/11/08 09:38:59;;;;;;;;;;;10.30;58.90;;;;;;4390201;32;19954;-47
2021/11/08 09:41:30;;;;;;;;;;;10.30;58.90;;;;;;4390432;32;20001;-47
2021/11/08 09:43:57;;;;;;;;;;;10.30;58.90;;;;;;4390321;32;20005;-46
2021/11/08 09:46:24;;;;;;;;;;;10.30;58.90;;;;;;4378607;32;19982;-48
2021/11/08 09:48:50;;;;;;;;;;;10.30;59.30;;;;;;4361216;32;19969;-48
2021/11/08 09:51:17;;;;;;;;;;;10.30;59.10;;;;;;4375056;32;20034;-49
2021/11/08 09:53:44;;;;;;;;;;;10.30;59.20;;;;;;4374955;32;19977;-50
2021/11/08 09:56:11;;;;;;;;;;;10.30;59.20;;;;;;4375200;32;19978;-46
2021/11/08 09:58:37;;;;;;;;;;;10.40;59.10;;;;;;4374709;32;19978;-47
2021/11/08 10:01:09;;;;;;;;;;;10.40;59.10;;;;;;4375287;32;19970;-47
2021/11/08 10:03:37;;;;;;;;;;;10.40;59.00;;;;;;4375221;32;19989;-48
2021/11/08 10:06:04;;;;;;;;;;;10.50;58.90;;;;;;4374974;32;20408;-47
2021/11/08 10:08:33;;;;;;;;;;;10.50;58.60;;;;;;4374838;32;19990;-50
2021/11/08 10:11:05;;;;;;;;;;;10.50;58.70;;;;;;4375062;32;19970;-48
2021/11/08 10:13:32;;;;;;;;;;;10.50;58.70;;;;;;4375236;32;19973;-47
2021/11/08 10:16:05;;;;;;;;;;;10.40;58.70;;;;;;4374769;32;19962;-48
2021/11/08 10:18:31;;;;;;;;;;;10.40;58.80;;;;;;4374826;32;19978;-49
2021/11/08 10:21:12;;;;;;;;;;;10.40;58.90;;;;;;4374644;32;19986;-47
2021/11/08 10:23:40;;;;;;;;;;;10.40;59.00;;;;;;4374581;32;20402;-47
2021/11/08 10:26:26;;;;;;;;;;;10.50;59.00;;;;;;4360906;32;19973;-49
2021/11/08 10:28:57;;;;;;;;;;;10.50;59.00;;;;;;4374442;32;19977;-50
2021/11/08 10:31:31;;;;;;;;;;;10.50;59.00;;;;;;4374877;32;19966;-49
2021/11/08 10:33:59;;;;;;;;;;;10.60;58.80;;;;;;4374176;32;20417;-48
2021/11/08 10:36:25;;;;;;;;;;;10.60;58.60;;;;;;4374517;32;20357;-49
2021/11/08 10:38:53;;;;;;;;;;;10.60;58.50;;;;;;4374668;32;19968;-47
2021/11/08 10:41:24;;;;;;;;;;;10.70;58.40;;;;;;4374091;32;19961;-48
2021/11/08 10:43:56;;;;;;;;;;;10.70;58.30;;;;;;4360604;32;19977;-48
2021/11/08 10:46:25;;;;;;;;;;;10.80;58.10;;;;;;4360280;32;20378;-47
2021/11/08 10:48:57;;;;;;;;;;;10.80;58.00;;;;;;4374110;32;20409;-47
2021/11/08 10:51:25;;;;;;;;;;;10.90;57.90;;;;;;4373765;32;20065;-48
2021/11/08 10:53:53;;;;;;;;;;;10.90;57.80;;;;;;4374085;32;19962;-48
2021/11/08 10:56:23;;;;;;;;;;;10.90;57.60;;;;;;4374294;32;19996;-48
2021/11/08 10:58:50;;;;;;;;;;;10.90;57.60;;;;;;4374807;32;20029;-47
2021/11/08 11:01:34;;;;;;;;;;;11.00;57.60;;;;;;4374475;32;20407;-50
2021/11/08 11:04:02;;;;;;;;;;;11.00;57.50;;;;;;4374031;32;19997;-47
2021/11/08 11:06:36;;;;;;;;;;;11.00;57.40;;;;;;4374471;32;20086;-49
2021/11/08 11:09:18;;;;;;;;;;;11.10;57.40;;;;;;4373450;32;19958;-46
2021/11/08 11:11:45;;;;;;;;;;;11.10;57.20;;;;;;4373965;32;19982;-50
2021/11/08 11:14:11;;;;;;;;;;;11.10;57.10;;;;;;4373733;32;19962;-47
2021/11/08 11:16:42;;;;;;;;;;;11.10;57.20;;;;;;4374006;32;19992;-51
2021/11/08 11:19:11;;;;;;;;;;;11.10;57.10;;;;;;4374144;32;20498;-50
2021/11/08 11:21:38;;;;;;;;;;;11.10;57.00;;;;;;4374299;32;19962;-48
2021/11/08 11:24:06;;;;;;;;;;;11.10;56.90;;;;;;4359527;32;20035;-47
2021/11/08 11:26:48;;;;;;;;;;;11.10;56.70;;;;;;4373729;32;20062;-50
2021/11/08 11:29:26;;;;;;;;;;;11.10;56.80;;;;;;4373659;32;20067;-47
2021/11/08 11:31:52;;;;;;;;;;;11.10;56.80;;;;;;4360521;32;19986;-48
2021/11/08 11:34:18;;;;;;;;;;;11.10;56.90;;;;;;4373558;32;20058;-50
2021/11/08 11:36:44;;;;;;;;;;;11.20;56.90;;;;;;4373926;32;19972;-50
2021/11/08 11:39:13;;;;;;;;;;;11.20;56.80;;;;;;4373790;32;19980;-49
2021/11/08 11:41:41;;;;;;;;;;;11.20;56.80;;;;;;4374058;32;19969;-49
2021/11/08 11:44:14;;;;;;;;;;;11.20;56.90;;;;;;4373583;32;19962;-47
2021/11/08 11:46:42;;;;;;;;;;;11.20;56.80;;;;;;4386908;32;19973;-50
2021/11/08 11:49:09;;;;;;;;;;;11.20;56.70;;;;;;4388875;32;19969;-47
2021/11/08 11:51:38;;;;;;;;;;;11.20;56.70;;;;;;4388789;32;19969;-47
2021/11/08 11:54:05;;;;;;;;;;;11.20;56.80;;;;;;4388413;32;19981;-44
2021/11/08 11:56:32;;;;;;;;;;;11.20;56.80;;;;;;4388452;32;19976;-47
2021/11/08 11:58:59;;;;;;;;;;;11.30;56.70;;;;;;4388859;32;20001;-47
2021/11/08 12:01:26;;;;;;;;;;;11.30;56.70;;;;;;4374725;32;20359;-48
2021/11/08 12:03:53;;;;;;;;;;;11.30;56.80;;;;;;4388563;32;19973;-51
2021/11/08 12:06:30;;;;;;;;;;;11.30;56.90;;;;;;4388585;32;20382;-52
2021/11/08 12:08:59;;;;;;;;;;;11.30;56.90;;;;;;4388346;32;19957;-50
2021/11/08 12:11:30;;;;;;;;;;;11.30;57.00;;;;;;4374418;32;20050;-49
2021/11/08 12:13:59;;;;;;;;;;;11.30;56.90;;;;;;4388150;32;19969;-51
2021/11/08 12:16:34;;;;;;;;;;;11.30;57.00;;;;;;4388104;32;20374;-49
2021/11/08 12:19:01;;;;;;;;;;;11.30;57.20;;;;;;4388141;32;20029;-46
2021/11/08 12:21:32;;;;;;;;;;;11.30;57.30;;;;;;4389322;32;19965;-47
2021/11/08 12:23:59;;;;;;;;;;;11.30;57.30;;;;;;4391306;32;20419;-49
2021/11/08 12:26:30;;;;;;;;;;;11.40;57.20;;;;;;4391469;32;20037;-50
2021/11/08 12:29:11;;;;;;;;;;;11.40;57.20;;;;;;4390818;32;20054;-49
2021/11/08 12:31:37;;;;;;;;;;;11.40;57.20;;;;;;4391677;32;20062;-49
2021/11/08 12:34:13;;;;;;;;;;;11.40;57.20;;;;;;4390986;32;19962;-51
2021/11/08 12:36:40;;;;;;;;;;;11.40;57.20;;;;;;4391512;32;20049;-49
2021/11/08 12:39:11;;;;;;;;;;;11.50;57.20;;;;;;4391519;32;19965;-49
2021/11/08 12:41:48;;;;;;;;;;;11.40;57.20;;;;;;4391103;32;20544;-47
2021/11/08 12:44:16;;;;;;;;;;;11.50;57.30;;;;;;4391463;32;19981;-48
2021/11/08 12:46:47;;;;;;;;;;;11.50;57.30;;;;;;4377784;32;20385;-50
2021/11/08 12:49:16;;;;;;;;;;;11.50;57.30;;;;;;4376367;32;19963;-48
2021/11/08 12:51:57;;;;;;;;;;;11.50;57.20;;;;;;4376112;32;19982;-49
2021/11/08 12:54:25;;;;;;;;;;;11.50;57.20;;;;;;4375888;32;20038;-49
2021/11/08 12:56:51;;;;;;;;;;;11.60;57.20;;;;;;4376122;32;19974;-46
2021/11/08 12:59:25;;;;;;;;;;;11.60;57.20;;;;;;4375630;32;20393;-48
2021/11/08 13:02:19;;;;;;;;;;;11.60;57.20;;;;;;4375855;32;20399;-47
2021/11/08 13:04:49;;;;;;;;;;;11.60;57.20;;;;;;4375637;32;19981;-47
2021/11/08 13:07:17;;;;;;;;;;;11.70;57.20;;;;;;4376103;32;20000;-47
2021/11/08 13:09:46;;;;;;;;;;;11.70;57.20;;;;;;4374391;32;20017;-47
2021/11/08 13:12:23;;;;;;;;;;;11.70;57.30;;;;;;4375757;32;20438;-47
2021/11/08 13:15:09;;;;;;;;;;;11.70;57.20;;;;;;4375221;32;19973;-49
2021/11/08 13:18:08;;;;;;;;;;;11.70;57.10;;;;;;4375393;32;19963;-48
2021/11/08 13:20:39;;;;;;;;;;;11.70;57.20;;;;;;4328796;33;19970;-49
2021/11/08 13:23:10;;;;;;;;;;;11.80;57.20;;;;;;4328831;33;19962;-47
2021/11/08 13:25:48;;;;;;;;;;;11.80;57.10;;;;;;4328501;33;20410;-48
2021/11/08 13:28:16;;;;;;;;;;;11.80;57.00;;;;;;4328466;33;19971;-50
2021/11/08 13:30:51;;;;;;;;;;;11.80;57.00;;;;;;4313640;33;20137;-48
2021/11/08 13:33:23;;;;;;;;;;;11.80;57.00;;;;;;4313354;33;20069;-49
2021/11/08 13:35:50;;;;;;;;;;;11.80;57.10;;;;;;4314206;33;19963;-47
2021/11/08 13:38:21;;;;;;;;;;;11.80;57.00;;;;;;4313552;33;19966;-51
2021/11/08 13:40:50;;;;;;;;;;;11.80;57.00;;;;;;4313869;33;20404;-50
2021/11/08 13:43:22;;;;;;;;;;;11.80;57.00;;;;;;4313675;33;20076;-49
2021/11/08 13:45:52;;;;;;;;;;;11.90;56.90;;;;;;4321012;33;20420;-45
2021/11/08 13:48:24;;;;;;;;;;;11.80;56.80;;;;;;4316112;33;20556;-49
2021/11/08 13:50:51;;;;;;;;;;;11.90;56.80;;;;;;4328609;33;19971;-45
2021/11/08 13:53:21;;;;;;;;;;;11.80;56.70;;;;;;4328613;33;20009;-52
2021/11/08 13:55:48;;;;;;;;;;;11.80;56.70;;;;;;4329980;32;19975;-48
2021/11/08 13:58:17;;;;;;;;;;;11.80;56.70;;;;;;4372325;32;20164;-49
2021/11/08 14:00:44;;;;;;;;;;;11.80;56.80;;;;;;4360145;32;20072;-51
2021/11/08 14:03:12;;;;;;;;;;;11.80;56.80;;;;;;4372789;32;20127;-48
2021/11/08 14:05:49;;;;;;;;;;;11.80;56.80;;;;;;4372034;32;20444;-48
2021/11/08 14:08:22;;;;;;;;;;;11.80;56.80;;;;;;4381532;32;19970;-48
2021/11/08 14:10:56;;;;;;;;;;;11.80;56.80;;;;;;4389796;32;19981;-47
2021/11/08 14:13:33;;;;;;;;;;;11.80;56.70;;;;;;4389681;32;19996;-48
2021/11/08 14:16:01;;;;;;;;;;;11.80;56.60;;;;;;4389793;32;19977;-48
2021/11/08 14:18:27;;;;;;;;;;;11.80;57.30;;;;;;4389883;32;19954;-47
2021/11/08 14:21:23;;;;;;;;;;;11.80;56.60;;;;;;4374999;32;20404;-46
2021/11/08 14:23:56;;;;;;;;;;;11.80;56.50;;;;;;4327664;33;20355;-45
2021/11/08 14:26:22;;;;;;;;;;;11.80;56.60;;;;;;4327666;33;20093;-44
2021/11/08 14:28:49;;;;;;;;;;;11.80;56.70;;;;;;4327883;33;19963;-47
2021/11/08 14:31:23;;;;;;;;;;;11.80;56.70;;;;;;4327117;33;20434;-47
2021/11/08 14:33:53;;;;;;;;;;;11.80;56.70;;;;;;4327516;33;19994;-45
2021/11/08 14:36:23;;;;;;;;;;;11.80;56.80;;;;;;4327510;33;20121;-50
2021/11/08 14:38:54;;;;;;;;;;;11.80;56.80;;;;;;4327972;33;19962;-45
2021/11/08 14:41:20;;;;;;;;;;;11.80;56.70;;;;;;4327152;33;20513;-46
2021/11/08 14:43:59;;;;;;;;;;;11.80;56.60;;;;;;4326807;33;20404;-45
2021/11/08 14:46:42;;;;;;;;;;;11.70;56.60;;;;;;4326473;33;19995;-44
2021/11/08 14:49:17;;;;;;;;;;;11.80;56.80;;;;;;4327064;33;19963;-45
2021/11/08 14:51:44;;;;;;;;;;;11.70;56.70;;;;;;4327332;33;20002;-48
2021/11/08 14:54:11;;;;;;;;;;;11.70;57.50;;;;;;4326897;33;19963;-46
2021/11/08 14:56:40;;;;;;;;;;;11.70;56.90;;;;;;4327021;33;19994;-47
2021/11/08 14:59:11;;;;;;;;;;;11.70;56.90;;;;;;4330367;32;19971;-47
2021/11/08 15:01:42;;;;;;;;;;;11.70;57.00;;;;;;4388869;32;20393;-47
2021/11/08 15:04:11;;;;;;;;;;;11.70;57.00;;;;;;4389537;32;19961;-46
2021/11/08 15:06:38;;;;;;;;;;;11.70;57.00;;;;;;4374975;32;19981;-47
2021/11/08 15:09:13;;;;;;;;;;;11.70;57.10;;;;;;4389139;32;20503;-47
2021/11/08 15:11:41;;;;;;;;;;;11.70;57.20;;;;;;4389336;32;20001;-49
2021/11/08 15:14:12;;;;;;;;;;;11.70;57.30;;;;;;4389146;32;19953;-47
2021/11/08 15:16:46;;;;;;;;;;;11.70;57.40;;;;;;4388893;32;20046;-49
2021/11/08 15:19:13;;;;;;;;;;;11.70;57.40;;;;;;4389193;32;19981;-50
2021/11/08 15:21:39;;;;;;;;;;;11.60;57.40;;;;;;4388977;32;19970;-52
2021/11/08 15:24:12;;;;;;;;;;;11.60;57.60;;;;;;4388733;32;19974;-49
2021/11/08 15:26:39;;;;;;;;;;;11.60;57.70;;;;;;4388910;32;20014;-51
2021/11/08 15:29:13;;;;;;;;;;;11.50;57.70;;;;;;4388997;32;19968;-49
2021/11/08 15:31:40;;;;;;;;;;;11.50;57.80;;;;;;4388873;32;19972;-48
2021/11/08 15:34:14;;;;;;;;;;;11.50;57.70;;;;;;4388408;32;20049;-47
2021/11/08 15:36:50;;;;;;;;;;;11.60;57.80;;;;;;4389065;32;19973;-48
2021/11/08 15:39:26;;;;;;;;;;;11.50;57.80;;;;;;4388775;32;19958;-47
2021/11/08 15:41:52;;;;;;;;;;;11.50;57.90;;;;;;4376013;32;20054;-48
2021/11/08 15:44:18;;;;;;;;;;;11.50;57.90;;;;;;4388511;32;19981;-49
2021/11/08 15:46:45;;;;;;;;;;;11.50;58.10;;;;;;4374670;32;20374;-48
2021/11/08 15:49:11;;;;;;;;;;;11.50;58.10;;;;;;4373201;32;20042;-49
2021/11/08 15:51:40;;;;;;;;;;;11.50;58.20;;;;;;4359630;32;20443;-49
2021/11/08 15:54:08;;;;;;;;;;;11.50;58.20;;;;;;4373705;32;20029;-47
2021/11/08 15:56:34;;;;;;;;;;;11.50;58.30;;;;;;4372963;32;20045;-47
2021/11/08 15:59:00;;;;;;;;;;;11.50;58.30;;;;;;4373436;32;19988;-48
2021/11/08 16:01:27;;;;;;;;;;;11.50;58.50;;;;;;4373405;32;19966;-41
2021/11/08 16:03:54;;;;;;;;;;;11.50;58.50;;;;;;4373403;32;20063;-49
2021/11/08 16:06:21;;;;;;;;;;;11.50;58.60;;;;;;4372889;32;20365;-47
2021/11/08 16:08:47;;;;;;;;;;;11.50;58.60;;;;;;4372871;32;20470;-48
2021/11/08 16:11:13;;;;;;;;;;;11.50;58.80;;;;;;4373310;32;20040;-50
2021/11/08 16:13:39;;;;;;;;;;;11.50;58.60;;;;;;4373205;32;20440;-48